sensor_id;sensor_type;location;lat;lon;timestamp;pressure;altitude;pressure_sealevel;temperature;humidity
56811;BME280;42691;47.234;27.494;2022-08-21T00:01:42;99117.34;;;22.87;100.00
56811;BME280;42691;47.234;27.494;2022-08-21T00:04:09;99127.25;;;23.01;100.00
56811;BME280;42691;47.234;27.494;2022-08-21T00:06:35;99119.97;;;22.79;100.00
56811;BME280;42691;47.234;27.494;2022-08-21T00:09:03;99122.59;;;22.79;100.00
56811;BME280;42691;47.234;27.494;2022-08-21T00:11:29;99115.84;;;22.93;100.00
56811;BME280;42691;47.234;27.494;2022-08-21T00:13:54;99114.66;;;22.95;100.00
56811;BME280;42691;47.234;27.494;2022-08-21T00:16:20;99102.09;;;22.81;100.00
56811;BME280;42691;47.234;27.494;2022-08-21T00:18:46;99111.03;;;22.88;100.00
56811;BME280;42691;47.234;27.494;2022-08-21T00:21:13;99103.88;;;22.72;100.00
56811;BME280;42691;47.234;27.494;2022-08-21T00:23:38;99117.81;;;22.74;100.00
56811;BME280;42691;47.234;27.494;2022-08-21T00:26:05;99116.81;;;22.67;100.00
56811;BME280;42691;47.234;27.494;2022-08-21T00:28:31;99117.25;;;22.46;100.00
56811;BME280;42691;47.234;27.494;2022-08-21T00:30:57;99114.94;;;22.60;100.00
56811;BME280;42691;47.234;27.494;2022-08-21T00:33:24;99116.47;;;22.70;100.00
56811;BME280;42691;47.234;27.494;2022-08-21T00:35:51;99121.31;;;22.83;100.00
56811;BME280;42691;47.234;27.494;2022-08-21T00:38:16;99116.97;;;22.74;100.00
56811;BME280;42691;47.234;27.494;2022-08-21T00:40:54;99109.19;;;22.72;100.00
56811;BME280;42691;47.234;27.494;2022-08-21T00:43:23;99118.25;;;22.62;100.00
56811;BME280;42691;47.234;27.494;2022-08-21T00:45:50;99114.34;;;22.82;100.00
56811;BME280;42691;47.234;27.494;2022-08-21T00:48:16;99111.00;;;22.72;100.00
56811;BME280;42691;47.234;27.494;2022-08-21T00:50:46;99105.69;;;22.80;100.00
56811;BME280;42691;47.234;27.494;2022-08-21T00:53:14;99107.69;;;22.78;100.00
56811;BME280;42691;47.234;27.494;2022-08-21T00:55:40;99108.88;;;22.84;100.00
56811;BME280;42691;47.234;27.494;2022-08-21T00:58:08;99097.06;;;22.54;100.00
56811;BME280;42691;47.234;27.494;2022-08-21T01:00:38;99071.50;;;22.28;100.00
56811;BME280;42691;47.234;27.494;2022-08-21T01:03:08;99086.78;;;22.51;100.00
56811;BME280;42691;47.234;27.494;2022-08-21T01:05:34;99093.41;;;22.55;100.00
56811;BME280;42691;47.234;27.494;2022-08-21T01:08:00;99083.47;;;22.32;100.00
56811;BME280;42691;47.234;27.494;2022-08-21T01:10:25;99083.47;;;22.40;100.00
56811;BME280;42691;47.234;27.494;2022-08-21T01:12:52;99086.44;;;22.45;100.00
56811;BME280;42691;47.234;27.494;2022-08-21T01:15:23;99089.78;;;22.56;100.00
56811;BME280;42691;47.234;27.494;2022-08-21T01:17:50;99084.47;;;22.48;100.00
56811;BME280;42691;47.234;27.494;2022-08-21T01:20:16;99079.66;;;22.35;100.00
56811;BME280;42691;47.234;27.494;2022-08-21T01:22:42;99077.47;;;22.22;100.00
56811;BME280;42691;47.234;27.494;2022-08-21T01:25:09;99080.06;;;22.06;100.00
56811;BME280;42691;47.234;27.494;2022-08-21T01:27:35;99078.94;;;22.25;100.00
56811;BME280;42691;47.234;27.494;2022-08-21T01:30:14;99078.63;;;22.28;100.00
56811;BME280;42691;47.234;27.494;2022-08-21T01:32:41;99075.94;;;22.11;100.00
56811;BME280;42691;47.234;27.494;2022-08-21T01:35:08;99083.06;;;22.11;100.00
56811;BME280;42691;47.234;27.494;2022-08-21T01:37:34;99090.66;;;22.06;100.00
56811;BME280;42691;47.234;27.494;2022-08-21T01:39:59;99073.75;;;21.99;100.00
56811;BME280;42691;47.234;27.494;2022-08-21T01:42:26;99081.25;;;22.20;100.00
56811;BME280;42691;47.234;27.494;2022-08-21T01:44:51;99082.97;;;22.37;100.00
56811;BME280;42691;47.234;27.494;2022-08-21T01:47:17;99075.19;;;22.43;100.00
56811;BME280;42691;47.234;27.494;2022-08-21T01:49:43;99082.91;;;22.21;100.00
56811;BME280;42691;47.234;27.494;2022-08-21T01:52:09;99076.34;;;22.33;100.00
56811;BME280;42691;47.234;27.494;2022-08-21T01:54:36;99069.88;;;22.35;100.00
56811;BME280;42691;47.234;27.494;2022-08-21T01:57:02;99067.13;;;22.03;100.00
56811;BME280;42691;47.234;27.494;2022-08-21T01:59:29;99056.28;;;21.80;100.00
56811;BME280;42691;47.234;27.494;2022-08-21T02:01:54;99064.19;;;22.06;100.00
56811;BME280;42691;47.234;27.494;2022-08-21T02:04:20;99062.00;;;22.01;100.00
56811;BME280;42691;47.234;27.494;2022-08-21T02:06:46;99063.16;;;21.99;100.00
56811;BME280;42691;47.234;27.494;2022-08-21T02:09:12;99055.88;;;22.01;100.00
56811;BME280;42691;47.234;27.494;2022-08-21T02:11:38;99060.66;;;21.97;100.00
56811;BME280;42691;47.234;27.494;2022-08-21T02:14:11;99067.03;;;21.78;100.00
56811;BME280;42691;47.234;27.494;2022-08-21T02:16:38;99067.69;;;21.80;100.00
56811;BME280;42691;47.234;27.494;2022-08-21T02:19:04;99082.56;;;21.73;100.00
56811;BME280;42691;47.234;27.494;2022-08-21T02:21:30;99076.25;;;21.66;100.00
56811;BME280;42691;47.234;27.494;2022-08-21T02:23:55;99078.09;;;21.66;100.00
56811;BME280;42691;47.234;27.494;2022-08-21T02:26:21;99084.94;;;21.50;100.00
56811;BME280;42691;47.234;27.494;2022-08-21T02:28:46;99085.94;;;21.49;100.00
56811;BME280;42691;47.234;27.494;2022-08-21T02:31:12;99092.41;;;21.55;100.00
56811;BME280;42691;47.234;27.494;2022-08-21T02:33:38;99088.25;;;21.52;100.00
56811;BME280;42691;47.234;27.494;2022-08-21T02:36:05;99090.06;;;21.52;100.00
56811;BME280;42691;47.234;27.494;2022-08-21T02:38:33;99082.75;;;21.46;100.00
56811;BME280;42691;47.234;27.494;2022-08-21T02:41:00;99086.72;;;21.42;100.00
56811;BME280;42691;47.234;27.494;2022-08-21T02:43:27;99089.72;;;21.47;100.00
56811;BME280;42691;47.234;27.494;2022-08-21T02:45:56;99077.78;;;21.43;100.00
56811;BME280;42691;47.234;27.494;2022-08-21T02:48:25;99075.25;;;21.59;100.00
56811;BME280;42691;47.234;27.494;2022-08-21T02:50:57;99082.53;;;21.65;100.00
56811;BME280;42691;47.234;27.494;2022-08-21T02:53:24;99066.63;;;21.57;100.00
56811;BME280;42691;47.234;27.494;2022-08-21T02:55:51;99076.16;;;21.50;100.00
56811;BME280;42691;47.234;27.494;2022-08-21T02:58:22;99067.66;;;21.30;100.00
56811;BME280;42691;47.234;27.494;2022-08-21T03:00:49;99064.56;;;21.43;100.00
56811;BME280;42691;47.234;27.494;2022-08-21T03:03:15;99067.31;;;21.59;100.00
56811;BME280;42691;47.234;27.494;2022-08-21T03:05:42;99069.53;;;21.46;100.00
56811;BME280;42691;47.234;27.494;2022-08-21T03:08:09;99069.28;;;21.57;100.00
56811;BME280;42691;47.234;27.494;2022-08-21T03:10:37;99064.38;;;21.36;100.00
56811;BME280;42691;47.234;27.494;2022-08-21T03:13:05;99078.94;;;21.40;100.00
56811;BME280;42691;47.234;27.494;2022-08-21T03:15:32;99071.81;;;21.41;100.00
56811;BME280;42691;47.234;27.494;2022-08-21T03:17:57;99078.22;;;21.56;100.00
56811;BME280;42691;47.234;27.494;2022-08-21T03:20:26;99080.59;;;21.41;100.00
56811;BME280;42691;47.234;27.494;2022-08-21T03:22:52;99073.44;;;21.34;100.00
56811;BME280;42691;47.234;27.494;2022-08-21T03:25:19;99083.50;;;21.30;100.00
56811;BME280;42691;47.234;27.494;2022-08-21T03:27:45;99089.31;;;21.34;100.00
56811;BME280;42691;47.234;27.494;2022-08-21T03:30:13;99094.38;;;21.53;100.00
56811;BME280;42691;47.234;27.494;2022-08-21T03:32:39;99093.97;;;21.40;100.00
56811;BME280;42691;47.234;27.494;2022-08-21T03:35:06;99100.84;;;21.25;100.00
56811;BME280;42691;47.234;27.494;2022-08-21T03:37:32;99104.47;;;21.24;100.00
56811;BME280;42691;47.234;27.494;2022-08-21T03:39:57;99100.41;;;20.94;100.00
56811;BME280;42691;47.234;27.494;2022-08-21T03:42:23;99100.53;;;20.84;100.00
56811;BME280;42691;47.234;27.494;2022-08-21T03:44:49;99110.75;;;21.05;100.00
56811;BME280;42691;47.234;27.494;2022-08-21T03:47:14;99102.78;;;21.22;100.00
56811;BME280;42691;47.234;27.494;2022-08-21T03:49:40;99121.63;;;21.19;100.00
56811;BME280;42691;47.234;27.494;2022-08-21T03:52:05;99116.34;;;21.02;100.00
56811;BME280;42691;47.234;27.494;2022-08-21T03:54:31;99113.09;;;21.26;100.00
56811;BME280;42691;47.234;27.494;2022-08-21T03:56:56;99109.16;;;21.30;100.00
56811;BME280;42691;47.234;27.494;2022-08-21T03:59:22;99113.19;;;21.42;100.00
56811;BME280;42691;47.234;27.494;2022-08-21T04:01:59;99119.81;;;21.46;100.00
56811;BME280;42691;47.234;27.494;2022-08-21T04:04:27;99122.41;;;21.38;100.00
56811;BME280;42691;47.234;27.494;2022-08-21T04:06:53;99128.34;;;21.32;100.00
56811;BME280;42691;47.234;27.494;2022-08-21T04:09:19;99122.72;;;21.61;100.00
56811;BME280;42691;47.234;27.494;2022-08-21T04:11:44;99131.50;;;21.61;100.00
56811;BME280;42691;47.234;27.494;2022-08-21T04:14:12;99134.47;;;21.58;100.00
56811;BME280;42691;47.234;27.494;2022-08-21T04:16:38;99135.81;;;21.62;100.00
56811;BME280;42691;47.234;27.494;2022-08-21T04:19:03;99138.50;;;21.70;100.00
56811;BME280;42691;47.234;27.494;2022-08-21T04:21:30;99132.88;;;21.73;100.00
56811;BME280;42691;47.234;27.494;2022-08-21T04:23:56;99135.50;;;21.65;100.00
56811;BME280;42691;47.234;27.494;2022-08-21T04:26:22;99132.78;;;21.91;100.00
56811;BME280;42691;47.234;27.494;2022-08-21T04:28:48;99132.94;;;21.90;100.00
56811;BME280;42691;47.234;27.494;2022-08-21T04:31:13;99140.38;;;21.86;100.00
56811;BME280;42691;47.234;27.494;2022-08-21T04:33:39;99148.06;;;22.31;100.00
56811;BME280;42691;47.234;27.494;2022-08-21T04:36:05;99146.97;;;22.08;100.00
56811;BME280;42691;47.234;27.494;2022-08-21T04:38:30;99135.31;;;22.01;100.00
56811;BME280;42691;47.234;27.494;2022-08-21T04:40:56;99139.59;;;21.94;100.00
56811;BME280;42691;47.234;27.494;2022-08-21T04:43:22;99143.53;;;21.90;100.00
56811;BME280;42691;47.234;27.494;2022-08-21T04:45:49;99140.22;;;21.88;100.00
56811;BME280;42691;47.234;27.494;2022-08-21T04:48:16;99133.34;;;22.03;100.00
56811;BME280;42691;47.234;27.494;2022-08-21T04:50:54;99132.00;;;21.99;100.00
56811;BME280;42691;47.234;27.494;2022-08-21T04:53:30;99111.50;;;22.01;100.00
56811;BME280;42691;47.234;27.494;2022-08-21T04:55:59;99145.34;;;23.14;100.00
56811;BME280;42691;47.234;27.494;2022-08-21T04:58:26;99130.66;;;23.75;100.00
56811;BME280;42691;47.234;27.494;2022-08-21T05:00:54;99119.34;;;24.28;100.00
56811;BME280;42691;47.234;27.494;2022-08-21T05:03:21;99123.97;;;24.26;100.00
56811;BME280;42691;47.234;27.494;2022-08-21T05:05:48;99123.75;;;24.67;100.00
56811;BME280;42691;47.234;27.494;2022-08-21T05:08:16;99123.00;;;24.50;100.00
56811;BME280;42691;47.234;27.494;2022-08-21T05:10:43;99121.97;;;24.59;100.00
56811;BME280;42691;47.234;27.494;2022-08-21T05:13:10;99116.75;;;24.43;100.00
56811;BME280;42691;47.234;27.494;2022-08-21T05:15:38;99130.47;;;24.16;100.00
56811;BME280;42691;47.234;27.494;2022-08-21T05:18:03;99133.75;;;23.95;100.00
56811;BME280;42691;47.234;27.494;2022-08-21T05:20:29;99132.09;;;23.94;100.00
56811;BME280;42691;47.234;27.494;2022-08-21T05:22:55;99130.44;;;23.93;100.00
56811;BME280;42691;47.234;27.494;2022-08-21T05:25:21;99131.41;;;24.00;100.00
56811;BME280;42691;47.234;27.494;2022-08-21T05:27:46;99137.63;;;23.76;100.00
56811;BME280;42691;47.234;27.494;2022-08-21T05:30:12;99134.66;;;23.79;100.00
56811;BME280;42691;47.234;27.494;2022-08-21T05:32:38;99134.13;;;23.84;100.00
56811;BME280;42691;47.234;27.494;2022-08-21T05:35:05;99131.81;;;23.81;100.00
56811;BME280;42691;47.234;27.494;2022-08-21T05:37:31;99133.47;;;23.82;100.00
56811;BME280;42691;47.234;27.494;2022-08-21T05:39:57;99129.78;;;24.61;100.00
56811;BME280;42691;47.234;27.494;2022-08-21T05:42:22;99130.91;;;25.27;100.00
56811;BME280;42691;47.234;27.494;2022-08-21T05:44:48;99122.25;;;25.10;100.00
56811;BME280;42691;47.234;27.494;2022-08-21T05:47:13;99105.03;;;25.50;100.00
56811;BME280;42691;47.234;27.494;2022-08-21T05:49:39;99114.00;;;25.20;100.00
56811;BME280;42691;47.234;27.494;2022-08-21T05:52:05;99113.53;;;25.83;100.00
56811;BME280;42691;47.234;27.494;2022-08-21T05:54:31;99112.06;;;25.81;100.00
56811;BME280;42691;47.234;27.494;2022-08-21T05:56:57;99108.31;;;25.23;100.00
56811;BME280;42691;47.234;27.494;2022-08-21T05:59:23;99120.53;;;24.94;100.00
56811;BME280;42691;47.234;27.494;2022-08-21T06:01:49;99111.72;;;24.48;100.00
56811;BME280;42691;47.234;27.494;2022-08-21T06:04:15;99123.16;;;24.57;100.00
56811;BME280;42691;47.234;27.494;2022-08-21T06:06:41;99118.28;;;24.83;100.00
56811;BME280;42691;47.234;27.494;2022-08-21T06:09:07;99116.66;;;25.05;100.00
56811;BME280;42691;47.234;27.494;2022-08-21T06:11:33;99119.56;;;24.87;100.00
56811;BME280;42691;47.234;27.494;2022-08-21T06:13:59;99112.38;;;24.73;100.00
56811;BME280;42691;47.234;27.494;2022-08-21T06:16:26;99114.66;;;24.61;100.00
56811;BME280;42691;47.234;27.494;2022-08-21T06:18:52;99115.59;;;24.91;100.00
56811;BME280;42691;47.234;27.494;2022-08-21T06:21:18;99114.19;;;24.50;100.00
56811;BME280;42691;47.234;27.494;2022-08-21T06:23:44;99120.41;;;24.42;100.00
56811;BME280;42691;47.234;27.494;2022-08-21T06:26:11;99123.63;;;24.60;100.00
56811;BME280;42691;47.234;27.494;2022-08-21T06:28:38;99118.50;;;24.51;100.00
56811;BME280;42691;47.234;27.494;2022-08-21T06:31:14;99133.19;;;25.15;100.00
56811;BME280;42691;47.234;27.494;2022-08-21T06:33:39;99120.41;;;25.11;100.00
56811;BME280;42691;47.234;27.494;2022-08-21T06:36:05;99128.56;;;25.62;100.00
56811;BME280;42691;47.234;27.494;2022-08-21T06:38:30;99116.66;;;25.72;100.00
56811;BME280;42691;47.234;27.494;2022-08-21T06:40:57;99124.69;;;25.49;100.00
56811;BME280;42691;47.234;27.494;2022-08-21T06:43:22;99124.53;;;25.66;100.00
56811;BME280;42691;47.234;27.494;2022-08-21T06:45:48;99125.16;;;25.97;100.00
56811;BME280;42691;47.234;27.494;2022-08-21T06:48:13;99133.16;;;25.97;100.00
56811;BME280;42691;47.234;27.494;2022-08-21T06:50:39;99133.84;;;25.70;100.00
56811;BME280;42691;47.234;27.494;2022-08-21T06:53:08;99123.09;;;25.78;100.00
56811;BME280;42691;47.234;27.494;2022-08-21T06:55:35;99129.41;;;25.92;100.00
56811;BME280;42691;47.234;27.494;2022-08-21T06:58:01;99133.00;;;25.84;100.00
56811;BME280;42691;47.234;27.494;2022-08-21T07:00:27;99139.03;;;25.48;100.00
56811;BME280;42691;47.234;27.494;2022-08-21T07:02:52;99141.69;;;25.63;100.00
56811;BME280;42691;47.234;27.494;2022-08-21T07:05:18;99131.00;;;25.71;100.00
56811;BME280;42691;47.234;27.494;2022-08-21T07:07:44;99134.91;;;25.61;100.00
56811;BME280;42691;47.234;27.494;2022-08-21T07:10:09;99141.84;;;25.70;100.00
56811;BME280;42691;47.234;27.494;2022-08-21T07:12:35;99138.16;;;25.71;100.00
56811;BME280;42691;47.234;27.494;2022-08-21T07:15:00;99135.03;;;25.82;100.00
56811;BME280;42691;47.234;27.494;2022-08-21T07:17:26;99140.00;;;25.85;100.00
56811;BME280;42691;47.234;27.494;2022-08-21T07:19:51;99136.75;;;25.90;100.00
56811;BME280;42691;47.234;27.494;2022-08-21T07:22:19;99130.81;;;26.02;100.00
56811;BME280;42691;47.234;27.494;2022-08-21T07:24:45;99130.81;;;26.02;100.00
56811;BME280;42691;47.234;27.494;2022-08-21T07:27:11;99132.53;;;25.95;100.00
56811;BME280;42691;47.234;27.494;2022-08-21T07:29:37;99130.78;;;26.53;100.00
56811;BME280;42691;47.234;27.494;2022-08-21T07:32:03;99128.31;;;26.73;100.00
56811;BME280;42691;47.234;27.494;2022-08-21T07:34:28;99126.69;;;26.36;100.00
56811;BME280;42691;47.234;27.494;2022-08-21T07:36:54;99125.50;;;26.24;100.00
56811;BME280;42691;47.234;27.494;2022-08-21T07:39:19;99123.38;;;26.34;100.00
56811;BME280;42691;47.234;27.494;2022-08-21T07:41:44;99118.81;;;26.13;100.00
56811;BME280;42691;47.234;27.494;2022-08-21T07:44:10;99115.44;;;25.90;100.00
56811;BME280;42691;47.234;27.494;2022-08-21T07:46:35;99113.00;;;26.24;100.00
56811;BME280;42691;47.234;27.494;2022-08-21T07:49:01;99117.59;;;26.45;100.00
56811;BME280;42691;47.234;27.494;2022-08-21T07:51:28;99110.47;;;26.52;100.00
56811;BME280;42691;47.234;27.494;2022-08-21T07:53:55;99108.88;;;26.22;100.00
56811;BME280;42691;47.234;27.494;2022-08-21T07:56:21;99105.50;;;26.49;100.00
56811;BME280;42691;47.234;27.494;2022-08-21T07:58:47;99103.59;;;26.28;100.00
56811;BME280;42691;47.234;27.494;2022-08-21T08:01:13;99097.13;;;26.52;100.00
56811;BME280;42691;47.234;27.494;2022-08-21T08:03:39;99103.38;;;26.81;100.00
56811;BME280;42691;47.234;27.494;2022-08-21T08:06:05;99090.00;;;26.59;100.00
56811;BME280;42691;47.234;27.494;2022-08-21T08:08:32;99083.28;;;26.42;100.00
56811;BME280;42691;47.234;27.494;2022-08-21T08:10:58;99079.16;;;26.82;100.00
56811;BME280;42691;47.234;27.494;2022-08-21T08:13:24;99073.81;;;26.82;100.00
56811;BME280;42691;47.234;27.494;2022-08-21T08:15:49;99063.66;;;27.20;100.00
56811;BME280;42691;47.234;27.494;2022-08-21T08:18:15;99071.06;;;27.53;100.00
56811;BME280;42691;47.234;27.494;2022-08-21T08:20:41;99074.25;;;27.41;100.00
56811;BME280;42691;47.234;27.494;2022-08-21T08:23:10;99069.00;;;27.55;100.00
56811;BME280;42691;47.234;27.494;2022-08-21T08:25:35;99066.03;;;27.71;100.00
56811;BME280;42691;47.234;27.494;2022-08-21T08:28:00;99066.69;;;27.86;100.00
56811;BME280;42691;47.234;27.494;2022-08-21T08:30:26;99070.47;;;28.05;100.00
56811;BME280;42691;47.234;27.494;2022-08-21T08:32:51;99071.53;;;27.63;100.00
56811;BME280;42691;47.234;27.494;2022-08-21T08:35:17;99070.03;;;27.88;100.00
56811;BME280;42691;47.234;27.494;2022-08-21T08:37:43;99052.91;;;28.37;100.00
56811;BME280;42691;47.234;27.494;2022-08-21T08:40:18;99058.47;;;28.55;100.00
56811;BME280;42691;47.234;27.494;2022-08-21T08:42:46;99057.84;;;28.53;100.00
56811;BME280;42691;47.234;27.494;2022-08-21T08:45:17;99059.88;;;28.25;100.00
56811;BME280;42691;47.234;27.494;2022-08-21T08:47:48;99057.22;;;28.31;100.00
56811;BME280;42691;47.234;27.494;2022-08-21T08:53:12;99050.03;;;28.52;100.00
56811;BME280;42691;47.234;27.494;2022-08-21T08:55:43;99051.88;;;28.25;100.00
56811;BME280;42691;47.234;27.494;2022-08-21T08:58:20;99058.56;;;28.14;100.00
56811;BME280;42691;47.234;27.494;2022-08-21T09:00:50;99052.94;;;28.77;100.00
56811;BME280;42691;47.234;27.494;2022-08-21T09:03:16;99051.50;;;28.81;100.00
56811;BME280;42691;47.234;27.494;2022-08-21T09:05:52;99045.09;;;28.36;100.00
56811;BME280;42691;47.234;27.494;2022-08-21T09:11:04;99039.75;;;28.42;100.00
56811;BME280;42691;47.234;27.494;2022-08-21T09:13:50;99038.72;;;28.56;100.00
56811;BME280;42691;47.234;27.494;2022-08-21T09:16:39;99042.63;;;28.60;100.00
56811;BME280;42691;47.234;27.494;2022-08-21T09:19:32;99037.69;;;28.44;100.00
56811;BME280;42691;47.234;27.494;2022-08-21T09:22:17;99031.50;;;28.57;100.00
56811;BME280;42691;47.234;27.494;2022-08-21T09:27:14;99036.66;;;28.39;100.00
56811;BME280;42691;47.234;27.494;2022-08-21T09:29:42;99028.63;;;28.58;100.00
56811;BME280;42691;47.234;27.494;2022-08-21T09:32:18;99033.75;;;28.33;100.00
56811;BME280;42691;47.234;27.494;2022-08-21T09:35:17;99006.41;;;28.25;100.00
56811;BME280;42691;47.234;27.494;2022-08-21T09:40:31;99034.59;;;28.60;100.00
56811;BME280;42691;47.234;27.494;2022-08-21T09:43:03;99031.28;;;28.39;100.00
56811;BME280;42691;47.234;27.494;2022-08-21T09:45:31;99029.34;;;27.99;100.00
56811;BME280;42691;47.234;27.494;2022-08-21T09:48:28;99023.19;;;28.19;100.00
56811;BME280;42691;47.234;27.494;2022-08-21T09:51:09;99024.44;;;28.16;100.00
56811;BME280;42691;47.234;27.494;2022-08-21T09:53:38;99031.41;;;28.17;100.00
56811;BME280;42691;47.234;27.494;2022-08-21T09:56:18;99018.25;;;28.22;100.00
56811;BME280;42691;47.234;27.494;2022-08-21T09:59:33;99019.97;;;28.37;100.00
56811;BME280;42691;47.234;27.494;2022-08-21T10:02:18;99012.97;;;28.36;100.00
56811;BME280;42691;47.234;27.494;2022-08-21T10:04:50;99017.94;;;28.52;100.00
56811;BME280;42691;47.234;27.494;2022-08-21T10:07:21;99021.22;;;28.47;100.00
56811;BME280;42691;47.234;27.494;2022-08-21T10:10:01;99012.59;;;28.65;100.00
56811;BME280;42691;47.234;27.494;2022-08-21T10:15:27;98994.66;;;28.59;100.00
56811;BME280;42691;47.234;27.494;2022-08-21T10:26:04;98997.34;;;28.52;100.00
56811;BME280;42691;47.234;27.494;2022-08-21T10:36:54;98996.31;;;28.80;100.00
56811;BME280;42691;47.234;27.494;2022-08-21T10:39:36;98996.13;;;28.88;100.00
56811;BME280;42691;47.234;27.494;2022-08-21T10:47:34;98980.84;;;29.08;100.00
56811;BME280;42691;47.234;27.494;2022-08-21T10:55:24;98982.41;;;29.49;100.00
56811;BME280;42691;47.234;27.494;2022-08-21T10:57:57;98980.63;;;29.16;100.00
56811;BME280;42691;47.234;27.494;2022-08-21T11:00:29;98975.06;;;29.11;100.00
56811;BME280;42691;47.234;27.494;2022-08-21T11:03:01;98972.81;;;29.08;100.00
56811;BME280;42691;47.234;27.494;2022-08-21T11:05:33;98968.69;;;28.99;100.00
56811;BME280;42691;47.234;27.494;2022-08-21T11:08:05;98961.94;;;28.77;100.00
56811;BME280;42691;47.234;27.494;2022-08-21T11:10:55;98960.25;;;28.95;100.00
56811;BME280;42691;47.234;27.494;2022-08-21T11:13:55;98956.03;;;29.33;100.00
56811;BME280;42691;47.234;27.494;2022-08-21T11:16:30;98947.53;;;29.55;100.00
56811;BME280;42691;47.234;27.494;2022-08-21T11:24:46;98953.81;;;29.23;100.00
56811;BME280;42691;47.234;27.494;2022-08-21T11:27:24;98950.72;;;29.19;100.00
56811;BME280;42691;47.234;27.494;2022-08-21T11:29:59;98942.75;;;28.93;100.00
56811;BME280;42691;47.234;27.494;2022-08-21T11:43:12;98940.50;;;28.90;100.00
56811;BME280;42691;47.234;27.494;2022-08-21T11:45:55;98935.56;;;28.87;100.00
56811;BME280;42691;47.234;27.494;2022-08-21T11:50:48;98930.59;;;29.04;100.00
56811;BME280;42691;47.234;27.494;2022-08-21T11:53:24;98926.09;;;28.78;100.00
56811;BME280;42691;47.234;27.494;2022-08-21T11:58:59;98920.94;;;28.96;100.00
56811;BME280;42691;47.234;27.494;2022-08-21T12:01:31;98918.47;;;28.88;100.00
56811;BME280;42691;47.234;27.494;2022-08-21T12:04:02;98924.22;;;28.91;100.00
56811;BME280;42691;47.234;27.494;2022-08-21T12:06:35;98921.31;;;29.06;100.00
56811;BME280;42691;47.234;27.494;2022-08-21T12:09:07;98924.81;;;29.07;100.00
56811;BME280;42691;47.234;27.494;2022-08-21T12:11:46;98915.97;;;29.06;100.00
56811;BME280;42691;47.234;27.494;2022-08-21T12:14:15;98915.31;;;29.17;100.00
56811;BME280;42691;47.234;27.494;2022-08-21T12:16:48;98912.13;;;29.34;100.00
56811;BME280;42691;47.234;27.494;2022-08-21T12:19:30;98911.44;;;29.58;100.00
56811;BME280;42691;47.234;27.494;2022-08-21T12:27:30;98875.03;;;28.86;100.00
56811;BME280;42691;47.234;27.494;2022-08-21T12:30:21;98890.44;;;28.97;100.00
56811;BME280;42691;47.234;27.494;2022-08-21T12:33:09;98898.47;;;28.84;100.00
56811;BME280;42691;47.234;27.494;2022-08-21T12:35:47;98891.09;;;28.86;100.00
56811;BME280;42691;47.234;27.494;2022-08-21T12:38:28;98884.91;;;28.85;100.00
56811;BME280;42691;47.234;27.494;2022-08-21T12:41:32;98882.66;;;29.47;100.00
56811;BME280;42691;47.234;27.494;2022-08-21T12:44:10;98880.06;;;29.65;100.00
56811;BME280;42691;47.234;27.494;2022-08-21T12:46:45;98877.84;;;29.55;100.00
56811;BME280;42691;47.234;27.494;2022-08-21T12:49:27;98873.56;;;29.48;100.00
56811;BME280;42691;47.234;27.494;2022-08-21T12:52:03;98876.03;;;29.43;100.00
56811;BME280;42691;47.234;27.494;2022-08-21T12:54:38;98872.06;;;29.59;100.00
56811;BME280;42691;47.234;27.494;2022-08-21T12:57:06;98863.53;;;29.68;100.00
56811;BME280;42691;47.234;27.494;2022-08-21T12:59:32;98857.13;;;29.38;100.00
56811;BME280;42691;47.234;27.494;2022-08-21T13:02:05;98864.72;;;29.41;100.00
56811;BME280;42691;47.234;27.494;2022-08-21T13:04:39;98857.13;;;29.31;100.00
56811;BME280;42691;47.234;27.494;2022-08-21T13:07:07;98852.84;;;29.62;100.00
56811;BME280;42691;47.234;27.494;2022-08-21T13:09:43;98849.06;;;29.44;100.00
56811;BME280;42691;47.234;27.494;2022-08-21T13:12:09;98861.94;;;29.61;100.00
56811;BME280;42691;47.234;27.494;2022-08-21T13:14:39;98855.31;;;29.63;100.00
56811;BME280;42691;47.234;27.494;2022-08-21T13:17:05;98855.72;;;29.67;100.00
56811;BME280;42691;47.234;27.494;2022-08-21T13:19:32;98852.56;;;29.76;100.00
56811;BME280;42691;47.234;27.494;2022-08-21T13:21:59;98858.88;;;29.88;100.00
56811;BME280;42691;47.234;27.494;2022-08-21T13:24:28;98852.75;;;29.81;100.00
56811;BME280;42691;47.234;27.494;2022-08-21T13:26:54;98855.28;;;29.70;100.00
56811;BME280;42691;47.234;27.494;2022-08-21T13:29:26;98838.91;;;29.84;100.00
56811;BME280;42691;47.234;27.494;2022-08-21T13:31:58;98848.75;;;29.91;100.00
56811;BME280;42691;47.234;27.494;2022-08-21T13:34:28;98837.09;;;29.78;100.00
56811;BME280;42691;47.234;27.494;2022-08-21T13:36:58;98837.94;;;29.72;100.00
56811;BME280;42691;47.234;27.494;2022-08-21T13:39:24;98839.16;;;29.76;100.00
56811;BME280;42691;47.234;27.494;2022-08-21T13:41:55;98832.09;;;29.82;100.00
56811;BME280;42691;47.234;27.494;2022-08-21T13:44:44;98827.66;;;29.69;100.00
56811;BME280;42691;47.234;27.494;2022-08-21T13:47:10;98827.19;;;29.79;100.00
56811;BME280;42691;47.234;27.494;2022-08-21T13:49:42;98816.69;;;29.77;100.00
56811;BME280;42691;47.234;27.494;2022-08-21T13:52:23;98823.44;;;29.55;100.00
56811;BME280;42691;47.234;27.494;2022-08-21T13:54:58;98833.44;;;29.66;100.00
56811;BME280;42691;47.234;27.494;2022-08-21T13:57:33;98826.88;;;29.62;100.00
56811;BME280;42691;47.234;27.494;2022-08-21T14:00:26;98823.50;;;29.73;100.00